sensor_id;sensor_type;location;lat;lon;timestamp;P1;durP1;ratioP1;P2;durP2;ratioP2
53052;SDS011;38934;52.690;6.184;2023-04-08T00:00:08;15.10;;;10.68;;
53052;SDS011;38934;52.690;6.184;2023-04-08T00:02:34;13.90;;;10.02;;
53052;SDS011;38934;52.690;6.184;2023-04-08T00:05:00;16.38;;;10.68;;
53052;SDS011;38934;52.690;6.184;2023-04-08T00:07:26;14.10;;;10.30;;
53052;SDS011;38934;52.690;6.184;2023-04-08T00:09:52;12.48;;;9.98;;
53052;SDS011;38934;52.690;6.184;2023-04-08T00:12:17;19.98;;;10.50;;
53052;SDS011;38934;52.690;6.184;2023-04-08T00:14:43;16.25;;;10.23;;
53052;SDS011;38934;52.690;6.184;2023-04-08T00:17:10;14.48;;;10.60;;
53052;SDS011;38934;52.690;6.184;2023-04-08T00:19:37;13.77;;;10.32;;
53052;SDS011;38934;52.690;6.184;2023-04-08T00:22:02;17.80;;;10.70;;
53052;SDS011;38934;52.690;6.184;2023-04-08T00:24:28;15.77;;;10.55;;
53052;SDS011;38934;52.690;6.184;2023-04-08T00:26:54;16.58;;;9.80;;
53052;SDS011;38934;52.690;6.184;2023-04-08T00:29:20;15.20;;;10.38;;
53052;SDS011;38934;52.690;6.184;2023-04-08T00:31:46;15.52;;;10.60;;
53052;SDS011;38934;52.690;6.184;2023-04-08T00:34:11;14.07;;;10.68;;
53052;SDS011;38934;52.690;6.184;2023-04-08T00:36:37;14.73;;;10.05;;
53052;SDS011;38934;52.690;6.184;2023-04-08T00:39:03;15.52;;;10.40;;
53052;SDS011;38934;52.690;6.184;2023-04-08T00:41:30;14.35;;;10.93;;
53052;SDS011;38934;52.690;6.184;2023-04-08T00:43:57;17.70;;;11.15;;
53052;SDS011;38934;52.690;6.184;2023-04-08T00:46:23;15.18;;;10.50;;
53052;SDS011;38934;52.690;6.184;2023-04-08T00:48:50;17.15;;;11.23;;
53052;SDS011;38934;52.690;6.184;2023-04-08T00:51:16;15.75;;;10.68;;
53052;SDS011;38934;52.690;6.184;2023-04-08T00:53:43;15.05;;;10.48;;
53052;SDS011;38934;52.690;6.184;2023-04-08T00:56:08;14.02;;;9.90;;
53052;SDS011;38934;52.690;6.184;2023-04-08T00:58:35;15.82;;;10.80;;
53052;SDS011;38934;52.690;6.184;2023-04-08T01:01:10;15.02;;;10.43;;
53052;SDS011;38934;52.690;6.184;2023-04-08T01:03:43;15.35;;;10.57;;
53052;SDS011;38934;52.690;6.184;2023-04-08T01:08:48;14.38;;;9.80;;
53052;SDS011;38934;52.690;6.184;2023-04-08T01:11:16;15.88;;;10.20;;
53052;SDS011;38934;52.690;6.184;2023-04-08T01:13:43;15.23;;;9.68;;
53052;SDS011;38934;52.690;6.184;2023-04-08T01:16:11;15.68;;;10.07;;
53052;SDS011;38934;52.690;6.184;2023-04-08T01:18:40;15.70;;;10.27;;
53052;SDS011;38934;52.690;6.184;2023-04-08T01:21:07;15.65;;;11.15;;
53052;SDS011;38934;52.690;6.184;2023-04-08T01:26:26;16.95;;;9.95;;
53052;SDS011;38934;52.690;6.184;2023-04-08T01:28:53;14.15;;;9.75;;
53052;SDS011;38934;52.690;6.184;2023-04-08T01:31:23;16.38;;;10.20;;
53052;SDS011;38934;52.690;6.184;2023-04-08T01:33:50;14.88;;;10.27;;
53052;SDS011;38934;52.690;6.184;2023-04-08T01:36:17;17.45;;;11.25;;
53052;SDS011;38934;52.690;6.184;2023-04-08T01:38:46;14.23;;;9.50;;
53052;SDS011;38934;52.690;6.184;2023-04-08T01:41:12;15.65;;;10.45;;
53052;SDS011;38934;52.690;6.184;2023-04-08T01:43:40;16.48;;;10.43;;
53052;SDS011;38934;52.690;6.184;2023-04-08T01:46:07;14.93;;;10.25;;
53052;SDS011;38934;52.690;6.184;2023-04-08T01:48:35;15.60;;;9.85;;
53052;SDS011;38934;52.690;6.184;2023-04-08T01:51:05;14.23;;;10.00;;
53052;SDS011;38934;52.690;6.184;2023-04-08T01:53:31;19.65;;;10.73;;
53052;SDS011;38934;52.690;6.184;2023-04-08T01:56:00;15.77;;;9.80;;
53052;SDS011;38934;52.690;6.184;2023-04-08T01:58:31;15.40;;;10.35;;
53052;SDS011;38934;52.690;6.184;2023-04-08T02:01:04;14.60;;;10.07;;
53052;SDS011;38934;52.690;6.184;2023-04-08T02:03:32;15.55;;;9.63;;
53052;SDS011;38934;52.690;6.184;2023-04-08T02:05:59;15.13;;;10.05;;
53052;SDS011;38934;52.690;6.184;2023-04-08T02:08:25;15.93;;;9.65;;
53052;SDS011;38934;52.690;6.184;2023-04-08T02:10:50;14.02;;;9.98;;
53052;SDS011;38934;52.690;6.184;2023-04-08T02:13:16;16.02;;;9.95;;
53052;SDS011;38934;52.690;6.184;2023-04-08T02:15:43;15.10;;;10.05;;
53052;SDS011;38934;52.690;6.184;2023-04-08T02:18:16;14.15;;;9.25;;
53052;SDS011;38934;52.690;6.184;2023-04-08T02:21:01;15.13;;;10.52;;
53052;SDS011;38934;52.690;6.184;2023-04-08T02:23:37;14.93;;;10.75;;
53052;SDS011;38934;52.690;6.184;2023-04-08T02:26:06;17.33;;;10.57;;
53052;SDS011;38934;52.690;6.184;2023-04-08T02:28:37;17.23;;;11.57;;
53052;SDS011;38934;52.690;6.184;2023-04-08T02:31:04;19.08;;;10.05;;
53052;SDS011;38934;52.690;6.184;2023-04-08T02:33:33;16.42;;;11.35;;
53052;SDS011;38934;52.690;6.184;2023-04-08T02:36:01;16.42;;;11.18;;
53052;SDS011;38934;52.690;6.184;2023-04-08T02:38:28;16.23;;;10.80;;
53052;SDS011;38934;52.690;6.184;2023-04-08T02:40:55;20.27;;;11.13;;
53052;SDS011;38934;52.690;6.184;2023-04-08T02:43:21;14.98;;;10.30;;
53052;SDS011;38934;52.690;6.184;2023-04-08T02:45:50;15.75;;;11.10;;
53052;SDS011;38934;52.690;6.184;2023-04-08T02:48:16;19.38;;;11.18;;
53052;SDS011;38934;52.690;6.184;2023-04-08T02:50:42;17.05;;;11.18;;
53052;SDS011;38934;52.690;6.184;2023-04-08T02:53:08;18.55;;;10.77;;
53052;SDS011;38934;52.690;6.184;2023-04-08T02:55:33;17.42;;;11.43;;
53052;SDS011;38934;52.690;6.184;2023-04-08T02:57:59;16.05;;;11.25;;
53052;SDS011;38934;52.690;6.184;2023-04-08T03:00:24;18.00;;;11.35;;
53052;SDS011;38934;52.690;6.184;2023-04-08T03:02:51;17.23;;;11.57;;
53052;SDS011;38934;52.690;6.184;2023-04-08T03:05:16;18.08;;;12.07;;
53052;SDS011;38934;52.690;6.184;2023-04-08T03:07:42;16.25;;;10.68;;
53052;SDS011;38934;52.690;6.184;2023-04-08T03:10:08;17.50;;;10.88;;
53052;SDS011;38934;52.690;6.184;2023-04-08T03:12:34;19.10;;;11.48;;
53052;SDS011;38934;52.690;6.184;2023-04-08T03:14:59;16.63;;;11.68;;
53052;SDS011;38934;52.690;6.184;2023-04-08T03:17:25;19.02;;;12.07;;
53052;SDS011;38934;52.690;6.184;2023-04-08T03:19:51;17.75;;;10.95;;
53052;SDS011;38934;52.690;6.184;2023-04-08T03:22:17;19.42;;;11.23;;
53052;SDS011;38934;52.690;6.184;2023-04-08T03:24:43;16.92;;;12.27;;
53052;SDS011;38934;52.690;6.184;2023-04-08T03:27:09;17.38;;;10.85;;
53052;SDS011;38934;52.690;6.184;2023-04-08T03:29:36;16.27;;;10.82;;
53052;SDS011;38934;52.690;6.184;2023-04-08T03:32:02;22.25;;;12.63;;
53052;SDS011;38934;52.690;6.184;2023-04-08T03:34:28;16.67;;;11.50;;
53052;SDS011;38934;52.690;6.184;2023-04-08T03:36:53;18.83;;;12.00;;
53052;SDS011;38934;52.690;6.184;2023-04-08T03:39:19;18.30;;;11.75;;
53052;SDS011;38934;52.690;6.184;2023-04-08T03:41:45;20.30;;;12.77;;
53052;SDS011;38934;52.690;6.184;2023-04-08T03:44:10;18.30;;;12.35;;
53052;SDS011;38934;52.690;6.184;2023-04-08T03:46:36;19.92;;;13.38;;
53052;SDS011;38934;52.690;6.184;2023-04-08T03:49:02;20.50;;;12.80;;
53052;SDS011;38934;52.690;6.184;2023-04-08T03:51:27;19.77;;;11.93;;
53052;SDS011;38934;52.690;6.184;2023-04-08T03:53:53;16.15;;;11.80;;
53052;SDS011;38934;52.690;6.184;2023-04-08T03:56:19;20.85;;;13.57;;
53052;SDS011;38934;52.690;6.184;2023-04-08T03:58:44;19.65;;;12.57;;
53052;SDS011;38934;52.690;6.184;2023-04-08T04:01:10;21.75;;;13.10;;
53052;SDS011;38934;52.690;6.184;2023-04-08T04:03:35;22.08;;;13.43;;
53052;SDS011;38934;52.690;6.184;2023-04-08T04:06:01;21.88;;;13.30;;
53052;SDS011;38934;52.690;6.184;2023-04-08T04:08:29;21.35;;;13.15;;
53052;SDS011;38934;52.690;6.184;2023-04-08T04:10:55;24.27;;;14.05;;
53052;SDS011;38934;52.690;6.184;2023-04-08T04:13:22;21.42;;;13.73;;
53052;SDS011;38934;52.690;6.184;2023-04-08T04:15:48;19.58;;;13.32;;
53052;SDS011;38934;52.690;6.184;2023-04-08T04:18:13;21.13;;;13.88;;
53052;SDS011;38934;52.690;6.184;2023-04-08T04:20:40;22.50;;;13.45;;
53052;SDS011;38934;52.690;6.184;2023-04-08T04:23:06;21.48;;;13.35;;
53052;SDS011;38934;52.690;6.184;2023-04-08T04:25:32;22.45;;;13.90;;
53052;SDS011;38934;52.690;6.184;2023-04-08T04:27:58;21.08;;;13.05;;
53052;SDS011;38934;52.690;6.184;2023-04-08T04:30:23;24.98;;;15.15;;
53052;SDS011;38934;52.690;6.184;2023-04-08T04:32:50;25.50;;;15.18;;
53052;SDS011;38934;52.690;6.184;2023-04-08T04:35:15;23.98;;;14.35;;
53052;SDS011;38934;52.690;6.184;2023-04-08T04:37:41;23.58;;;14.05;;
53052;SDS011;38934;52.690;6.184;2023-04-08T04:40:07;24.75;;;14.25;;
53052;SDS011;38934;52.690;6.184;2023-04-08T04:42:33;24.02;;;14.65;;
53052;SDS011;38934;52.690;6.184;2023-04-08T04:44:59;24.17;;;15.05;;
53052;SDS011;38934;52.690;6.184;2023-04-08T04:47:24;26.48;;;15.50;;
53052;SDS011;38934;52.690;6.184;2023-04-08T04:49:50;22.77;;;14.57;;
53052;SDS011;38934;52.690;6.184;2023-04-08T04:52:16;25.88;;;14.95;;
53052;SDS011;38934;52.690;6.184;2023-04-08T04:54:42;25.52;;;15.15;;
53052;SDS011;38934;52.690;6.184;2023-04-08T04:57:08;23.73;;;14.63;;
53052;SDS011;38934;52.690;6.184;2023-04-08T04:59:35;25.02;;;15.23;;
53052;SDS011;38934;52.690;6.184;2023-04-08T05:02:00;22.92;;;14.13;;
53052;SDS011;38934;52.690;6.184;2023-04-08T05:04:26;23.55;;;13.75;;
53052;SDS011;38934;52.690;6.184;2023-04-08T05:06:52;26.23;;;15.68;;
53052;SDS011;38934;52.690;6.184;2023-04-08T05:09:17;25.08;;;15.15;;
53052;SDS011;38934;52.690;6.184;2023-04-08T05:11:43;26.73;;;16.58;;
53052;SDS011;38934;52.690;6.184;2023-04-08T05:14:09;26.08;;;15.95;;
53052;SDS011;38934;52.690;6.184;2023-04-08T05:16:34;28.00;;;16.35;;
53052;SDS011;38934;52.690;6.184;2023-04-08T05:19:00;27.15;;;16.17;;
53052;SDS011;38934;52.690;6.184;2023-04-08T05:21:26;37.13;;;18.15;;
53052;SDS011;38934;52.690;6.184;2023-04-08T05:23:52;25.08;;;16.42;;
53052;SDS011;38934;52.690;6.184;2023-04-08T05:26:21;28.98;;;17.38;;
53052;SDS011;38934;52.690;6.184;2023-04-08T05:28:47;27.75;;;16.38;;
53052;SDS011;38934;52.690;6.184;2023-04-08T05:31:17;26.27;;;17.05;;
53052;SDS011;38934;52.690;6.184;2023-04-08T05:33:44;29.38;;;17.23;;
53052;SDS011;38934;52.690;6.184;2023-04-08T05:36:10;31.23;;;18.42;;
53052;SDS011;38934;52.690;6.184;2023-04-08T05:38:36;30.40;;;17.65;;
53052;SDS011;38934;52.690;6.184;2023-04-08T05:41:02;27.77;;;16.73;;
53052;SDS011;38934;52.690;6.184;2023-04-08T05:43:28;30.80;;;17.38;;
53052;SDS011;38934;52.690;6.184;2023-04-08T05:45:54;31.00;;;17.88;;
53052;SDS011;38934;52.690;6.184;2023-04-08T05:48:20;28.20;;;16.65;;
53052;SDS011;38934;52.690;6.184;2023-04-08T05:50:45;31.75;;;18.50;;
53052;SDS011;38934;52.690;6.184;2023-04-08T05:53:12;32.15;;;18.75;;
53052;SDS011;38934;52.690;6.184;2023-04-08T05:55:39;29.95;;;17.85;;
53052;SDS011;38934;52.690;6.184;2023-04-08T05:58:05;32.72;;;18.25;;
53052;SDS011;38934;52.690;6.184;2023-04-08T06:00:31;29.85;;;17.45;;
53052;SDS011;38934;52.690;6.184;2023-04-08T06:02:57;32.83;;;18.30;;
53052;SDS011;38934;52.690;6.184;2023-04-08T06:05:22;30.67;;;18.27;;
53052;SDS011;38934;52.690;6.184;2023-04-08T06:07:48;30.90;;;17.52;;
53052;SDS011;38934;52.690;6.184;2023-04-08T06:10:13;30.50;;;18.30;;
53052;SDS011;38934;52.690;6.184;2023-04-08T06:12:40;28.98;;;17.88;;
53052;SDS011;38934;52.690;6.184;2023-04-08T06:15:06;35.03;;;18.52;;
53052;SDS011;38934;52.690;6.184;2023-04-08T06:17:35;30.85;;;18.23;;
53052;SDS011;38934;52.690;6.184;2023-04-08T06:20:01;32.63;;;18.95;;
53052;SDS011;38934;52.690;6.184;2023-04-08T06:22:27;30.17;;;18.80;;
53052;SDS011;38934;52.690;6.184;2023-04-08T06:24:53;29.50;;;17.88;;
53052;SDS011;38934;52.690;6.184;2023-04-08T06:27:19;32.35;;;18.80;;
53052;SDS011;38934;52.690;6.184;2023-04-08T06:29:45;32.42;;;19.10;;
53052;SDS011;38934;52.690;6.184;2023-04-08T06:32:11;28.70;;;18.02;;
53052;SDS011;38934;52.690;6.184;2023-04-08T06:34:37;31.52;;;18.58;;
53052;SDS011;38934;52.690;6.184;2023-04-08T06:37:03;31.25;;;18.52;;
53052;SDS011;38934;52.690;6.184;2023-04-08T06:39:30;32.20;;;19.13;;
53052;SDS011;38934;52.690;6.184;2023-04-08T06:41:55;32.33;;;19.27;;
53052;SDS011;38934;52.690;6.184;2023-04-08T06:44:22;32.90;;;19.83;;
53052;SDS011;38934;52.690;6.184;2023-04-08T06:46:48;35.88;;;18.65;;
53052;SDS011;38934;52.690;6.184;2023-04-08T06:49:14;36.75;;;20.83;;
53052;SDS011;38934;52.690;6.184;2023-04-08T06:51:40;32.85;;;19.23;;
53052;SDS011;38934;52.690;6.184;2023-04-08T06:54:05;35.50;;;20.00;;
53052;SDS011;38934;52.690;6.184;2023-04-08T06:56:31;31.13;;;18.67;;
53052;SDS011;38934;52.690;6.184;2023-04-08T06:58:57;33.03;;;19.45;;
53052;SDS011;38934;52.690;6.184;2023-04-08T07:01:23;30.65;;;18.65;;
53052;SDS011;38934;52.690;6.184;2023-04-08T07:03:49;32.50;;;18.88;;
53052;SDS011;38934;52.690;6.184;2023-04-08T07:06:15;34.33;;;20.05;;
53052;SDS011;38934;52.690;6.184;2023-04-08T07:08:41;31.15;;;19.27;;
53052;SDS011;38934;52.690;6.184;2023-04-08T07:11:09;33.40;;;19.67;;
53052;SDS011;38934;52.690;6.184;2023-04-08T07:13:35;42.03;;;22.67;;
53052;SDS011;38934;52.690;6.184;2023-04-08T07:16:01;37.92;;;20.90;;
53052;SDS011;38934;52.690;6.184;2023-04-08T07:18:26;31.63;;;19.55;;
53052;SDS011;38934;52.690;6.184;2023-04-08T07:20:53;34.63;;;20.30;;
53052;SDS011;38934;52.690;6.184;2023-04-08T07:23:18;35.45;;;21.65;;
53052;SDS011;38934;52.690;6.184;2023-04-08T07:25:45;31.85;;;20.23;;
53052;SDS011;38934;52.690;6.184;2023-04-08T07:28:11;33.58;;;19.85;;
53052;SDS011;38934;52.690;6.184;2023-04-08T07:30:37;31.63;;;19.85;;
53052;SDS011;38934;52.690;6.184;2023-04-08T07:33:02;36.58;;;21.08;;
53052;SDS011;38934;52.690;6.184;2023-04-08T07:35:28;34.80;;;20.52;;
53052;SDS011;38934;52.690;6.184;2023-04-08T07:37:56;32.13;;;19.70;;
53052;SDS011;38934;52.690;6.184;2023-04-08T07:40:21;35.13;;;19.77;;
53052;SDS011;38934;52.690;6.184;2023-04-08T07:42:47;35.00;;;21.30;;
53052;SDS011;38934;52.690;6.184;2023-04-08T07:45:13;31.23;;;19.77;;
53052;SDS011;38934;52.690;6.184;2023-04-08T07:47:39;30.40;;;19.60;;
53052;SDS011;38934;52.690;6.184;2023-04-08T07:50:05;32.88;;;20.17;;
53052;SDS011;38934;52.690;6.184;2023-04-08T07:52:32;33.17;;;20.33;;
53052;SDS011;38934;52.690;6.184;2023-04-08T07:54:58;36.53;;;19.65;;
53052;SDS011;38934;52.690;6.184;2023-04-08T07:57:24;32.80;;;19.83;;
53052;SDS011;38934;52.690;6.184;2023-04-08T07:59:50;31.00;;;19.52;;
53052;SDS011;38934;52.690;6.184;2023-04-08T08:02:16;30.73;;;19.70;;
53052;SDS011;38934;52.690;6.184;2023-04-08T08:04:42;32.80;;;20.73;;
53052;SDS011;38934;52.690;6.184;2023-04-08T08:07:08;33.20;;;19.80;;
53052;SDS011;38934;52.690;6.184;2023-04-08T08:09:33;30.38;;;19.17;;
53052;SDS011;38934;52.690;6.184;2023-04-08T08:11:59;29.13;;;18.95;;
53052;SDS011;38934;52.690;6.184;2023-04-08T08:14:25;31.88;;;19.40;;
53052;SDS011;38934;52.690;6.184;2023-04-08T08:16:51;30.50;;;19.52;;
53052;SDS011;38934;52.690;6.184;2023-04-08T08:19:18;30.20;;;19.60;;
53052;SDS011;38934;52.690;6.184;2023-04-08T08:21:45;33.33;;;20.17;;
53052;SDS011;38934;52.690;6.184;2023-04-08T08:24:10;33.75;;;20.02;;
53052;SDS011;38934;52.690;6.184;2023-04-08T08:26:36;30.77;;;19.85;;
53052;SDS011;38934;52.690;6.184;2023-04-08T08:29:03;30.55;;;19.33;;
53052;SDS011;38934;52.690;6.184;2023-04-08T08:31:30;29.33;;;18.92;;
53052;SDS011;38934;52.690;6.184;2023-04-08T08:33:56;30.08;;;19.30;;
53052;SDS011;38934;52.690;6.184;2023-04-08T08:36:21;28.80;;;18.60;;
53052;SDS011;38934;52.690;6.184;2023-04-08T08:38:47;27.65;;;17.90;;
53052;SDS011;38934;52.690;6.184;2023-04-08T08:41:13;32.35;;;19.00;;
53052;SDS011;38934;52.690;6.184;2023-04-08T08:43:39;29.02;;;18.25;;
53052;SDS011;38934;52.690;6.184;2023-04-08T08:46:07;26.95;;;18.17;;
53052;SDS011;38934;52.690;6.184;2023-04-08T08:48:35;27.05;;;17.50;;
53052;SDS011;38934;52.690;6.184;2023-04-08T08:51:06;25.33;;;16.63;;
53052;SDS011;38934;52.690;6.184;2023-04-08T08:53:36;27.88;;;16.98;;
53052;SDS011;38934;52.690;6.184;2023-04-08T08:56:02;29.48;;;18.15;;
53052;SDS011;38934;52.690;6.184;2023-04-08T08:58:28;26.02;;;16.63;;
53052;SDS011;38934;52.690;6.184;2023-04-08T09:00:54;25.90;;;17.05;;
53052;SDS011;38934;52.690;6.184;2023-04-08T09:03:21;24.00;;;16.45;;
53052;SDS011;38934;52.690;6.184;2023-04-08T09:05:50;26.08;;;17.02;;
53052;SDS011;38934;52.690;6.184;2023-04-08T09:08:38;25.83;;;16.90;;
53052;SDS011;38934;52.690;6.184;2023-04-08T09:11:15;24.65;;;16.33;;
53052;SDS011;38934;52.690;6.184;2023-04-08T09:13:47;23.50;;;15.73;;
53052;SDS011;38934;52.690;6.184;2023-04-08T09:16:14;25.63;;;17.05;;
53052;SDS011;38934;52.690;6.184;2023-04-08T09:18:42;22.88;;;15.50;;
53052;SDS011;38934;52.690;6.184;2023-04-08T09:21:10;22.25;;;14.00;;
53052;SDS011;38934;52.690;6.184;2023-04-08T09:23:46;21.85;;;14.75;;
53052;SDS011;38934;52.690;6.184;2023-04-08T09:26:23;21.60;;;14.75;;
53052;SDS011;38934;52.690;6.184;2023-04-08T09:31:24;23.00;;;14.80;;
53052;SDS011;38934;52.690;6.184;2023-04-08T09:33:55;22.10;;;14.48;;
53052;SDS011;38934;52.690;6.184;2023-04-08T09:36:23;22.25;;;14.45;;
53052;SDS011;38934;52.690;6.184;2023-04-08T09:38:53;25.05;;;16.20;;
53052;SDS011;38934;52.690;6.184;2023-04-08T09:41:19;21.48;;;14.70;;
53052;SDS011;38934;52.690;6.184;2023-04-08T09:43:48;24.13;;;14.98;;
53052;SDS011;38934;52.690;6.184;2023-04-08T09:46:17;22.98;;;14.55;;
53052;SDS011;38934;52.690;6.184;2023-04-08T09:48:49;21.60;;;15.38;;
53052;SDS011;38934;52.690;6.184;2023-04-08T09:51:19;23.00;;;15.00;;
53052;SDS011;38934;52.690;6.184;2023-04-08T09:53:49;23.65;;;15.10;;
53052;SDS011;38934;52.690;6.184;2023-04-08T09:56:21;20.30;;;14.35;;
53052;SDS011;38934;52.690;6.184;2023-04-08T09:58:50;22.40;;;14.88;;
53052;SDS011;38934;52.690;6.184;2023-04-08T10:01:21;20.73;;;14.32;;
53052;SDS011;38934;52.690;6.184;2023-04-08T10:03:54;27.00;;;15.63;;
53052;SDS011;38934;52.690;6.184;2023-04-08T10:06:25;22.02;;;15.57;;
53052;SDS011;38934;52.690;6.184;2023-04-08T10:08:54;24.52;;;16.38;;
53052;SDS011;38934;52.690;6.184;2023-04-08T10:11:20;23.77;;;15.95;;
53052;SDS011;38934;52.690;6.184;2023-04-08T10:13:46;22.42;;;16.33;;
53052;SDS011;38934;52.690;6.184;2023-04-08T10:18:49;22.48;;;16.60;;
53052;SDS011;38934;52.690;6.184;2023-04-08T10:21:35;22.00;;;15.55;;
53052;SDS011;38934;52.690;6.184;2023-04-08T10:24:05;24.55;;;16.65;;
53052;SDS011;38934;52.690;6.184;2023-04-08T10:26:33;23.55;;;16.30;;
53052;SDS011;38934;52.690;6.184;2023-04-08T10:31:47;25.88;;;15.93;;
53052;SDS011;38934;52.690;6.184;2023-04-08T10:36:46;22.38;;;16.35;;
53052;SDS011;38934;52.690;6.184;2023-04-08T10:39:13;23.23;;;16.80;;
53052;SDS011;38934;52.690;6.184;2023-04-08T10:41:45;22.85;;;16.65;;
53052;SDS011;38934;52.690;6.184;2023-04-08T10:46:48;21.08;;;15.73;;
53052;SDS011;38934;52.690;6.184;2023-04-08T10:49:15;21.73;;;16.25;;
53052;SDS011;38934;52.690;6.184;2023-04-08T10:51:42;20.23;;;16.00;;
53052;SDS011;38934;52.690;6.184;2023-04-08T10:54:12;20.77;;;15.43;;
53052;SDS011;38934;52.690;6.184;2023-04-08T10:56:42;20.90;;;14.90;;
53052;SDS011;38934;52.690;6.184;2023-04-08T10:59:15;20.50;;;14.23;;
53052;SDS011;38934;52.690;6.184;2023-04-08T11:01:50;17.98;;;14.25;;
53052;SDS011;38934;52.690;6.184;2023-04-08T11:04:17;19.15;;;14.68;;
53052;SDS011;38934;52.690;6.184;2023-04-08T11:06:43;17.80;;;13.27;;
53052;SDS011;38934;52.690;6.184;2023-04-08T11:09:11;19.00;;;13.77;;
53052;SDS011;38934;52.690;6.184;2023-04-08T11:11:38;18.08;;;13.75;;
53052;SDS011;38934;52.690;6.184;2023-04-08T11:14:06;18.73;;;13.00;;
53052;SDS011;38934;52.690;6.184;2023-04-08T11:16:32;18.08;;;13.15;;
53052;SDS011;38934;52.690;6.184;2023-04-08T11:19:01;18.25;;;13.82;;
53052;SDS011;38934;52.690;6.184;2023-04-08T11:21:29;16.70;;;12.93;;
53052;SDS011;38934;52.690;6.184;2023-04-08T11:23:55;17.30;;;13.10;;
53052;SDS011;38934;52.690;6.184;2023-04-08T11:26:21;17.67;;;13.00;;
53052;SDS011;38934;52.690;6.184;2023-04-08T11:28:49;17.08;;;12.10;;
53052;SDS011;38934;52.690;6.184;2023-04-08T11:31:15;17.00;;;13.15;;
53052;SDS011;38934;52.690;6.184;2023-04-08T11:33:48;18.02;;;14.13;;
53052;SDS011;38934;52.690;6.184;2023-04-08T11:36:17;16.17;;;12.65;;
53052;SDS011;38934;52.690;6.184;2023-04-08T11:38:43;17.67;;;12.82;;
53052;SDS011;38934;52.690;6.184;2023-04-08T11:41:10;17.65;;;12.57;;
53052;SDS011;38934;52.690;6.184;2023-04-08T11:43:36;17.98;;;12.45;;
53052;SDS011;38934;52.690;6.184;2023-04-08T11:46:09;19.45;;;12.95;;
53052;SDS011;38934;52.690;6.184;2023-04-08T11:48:35;17.77;;;12.70;;
53052;SDS011;38934;52.690;6.184;2023-04-08T11:51:03;17.27;;;13.30;;
53052;SDS011;38934;52.690;6.184;2023-04-08T11:53:36;18.77;;;13.57;;
53052;SDS011;38934;52.690;6.184;2023-04-08T11:56:17;16.90;;;12.38;;
53052;SDS011;38934;52.690;6.184;2023-04-08T11:58:44;16.83;;;13.18;;
53052;SDS011;38934;52.690;6.184;2023-04-08T12:01:10;17.65;;;13.45;;
53052;SDS011;38934;52.690;6.184;2023-04-08T12:03:36;19.02;;;13.20;;
53052;SDS011;38934;52.690;6.184;2023-04-08T12:06:06;17.85;;;13.75;;
53052;SDS011;38934;52.690;6.184;2023-04-08T12:08:33;16.50;;;13.15;;
53052;SDS011;38934;52.690;6.184;2023-04-08T12:10:59;18.65;;;13.43;;
53052;SDS011;38934;52.690;6.184;2023-04-08T12:13:25;19.20;;;13.20;;
53052;SDS011;38934;52.690;6.184;2023-04-08T12:15:51;17.65;;;13.52;;
53052;SDS011;38934;52.690;6.184;2023-04-08T12:18:17;17.05;;;13.05;;
53052;SDS011;38934;52.690;6.184;2023-04-08T12:20:42;15.73;;;12.23;;
53052;SDS011;38934;52.690;6.184;2023-04-08T12:23:08;16.30;;;12.68;;
53052;SDS011;38934;52.690;6.184;2023-04-08T12:25:33;18.98;;;13.57;;
53052;SDS011;38934;52.690;6.184;2023-04-08T12:27:59;17.40;;;12.88;;
53052;SDS011;38934;52.690;6.184;2023-04-08T12:30:28;17.88;;;13.75;;
53052;SDS011;38934;52.690;6.184;2023-04-08T12:32:53;19.70;;;13.25;;
53052;SDS011;38934;52.690;6.184;2023-04-08T12:35:19;17.55;;;13.35;;
53052;SDS011;38934;52.690;6.184;2023-04-08T12:37:45;18.63;;;14.02;;
53052;SDS011;38934;52.690;6.184;2023-04-08T12:40:10;18.60;;;14.00;;
53052;SDS011;38934;52.690;6.184;2023-04-08T12:42:36;18.05;;;14.40;;
53052;SDS011;38934;52.690;6.184;2023-04-08T12:45:02;17.80;;;14.25;;
53052;SDS011;38934;52.690;6.184;2023-04-08T12:47:28;16.70;;;13.25;;
53052;SDS011;38934;52.690;6.184;2023-04-08T12:49:53;19.08;;;14.40;;
53052;SDS011;38934;52.690;6.184;2023-04-08T12:52:19;17.60;;;13.77;;
53052;SDS011;38934;52.690;6.184;2023-04-08T12:54:44;17.23;;;13.73;;
53052;SDS011;38934;52.690;6.184;2023-04-08T12:57:10;16.60;;;13.75;;
53052;SDS011;38934;52.690;6.184;2023-04-08T12:59:36;18.55;;;14.35;;
53052;SDS011;38934;52.690;6.184;2023-04-08T13:02:04;17.48;;;12.85;;
53052;SDS011;38934;52.690;6.184;2023-04-08T13:04:29;18.15;;;13.18;;
53052;SDS011;38934;52.690;6.184;2023-04-08T13:06:55;16.38;;;13.43;;
53052;SDS011;38934;52.690;6.184;2023-04-08T13:09:21;15.85;;;12.68;;
53052;SDS011;38934;52.690;6.184;2023-04-08T13:11:47;15.32;;;12.70;;
53052;SDS011;38934;52.690;6.184;2023-04-08T13:14:13;16.45;;;13.27;;
53052;SDS011;38934;52.690;6.184;2023-04-08T13:16:38;16.25;;;12.48;;
53052;SDS011;38934;52.690;6.184;2023-04-08T13:19:04;15.27;;;12.65;;
53052;SDS011;38934;52.690;6.184;2023-04-08T13:21:30;13.40;;;11.40;;
53052;SDS011;38934;52.690;6.184;2023-04-08T13:23:56;17.60;;;12.32;;
53052;SDS011;38934;52.690;6.184;2023-04-08T13:26:21;13.80;;;10.60;;
53052;SDS011;38934;52.690;6.184;2023-04-08T13:28:48;15.38;;;11.38;;
53052;SDS011;38934;52.690;6.184;2023-04-08T13:31:16;13.18;;;11.07;;
53052;SDS011;38934;52.690;6.184;2023-04-08T13:33:43;13.98;;;11.48;;
53052;SDS011;38934;52.690;6.184;2023-04-08T13:36:08;13.07;;;10.73;;
53052;SDS011;38934;52.690;6.184;2023-04-08T13:38:34;12.07;;;9.82;;
53052;SDS011;38934;52.690;6.184;2023-04-08T13:41:00;12.38;;;10.35;;
53052;SDS011;38934;52.690;6.184;2023-04-08T13:43:27;13.32;;;10.02;;
53052;SDS011;38934;52.690;6.184;2023-04-08T13:45:54;12.93;;;9.55;;
53052;SDS011;38934;52.690;6.184;2023-04-08T13:48:21;13.27;;;9.82;;
53052;SDS011;38934;52.690;6.184;2023-04-08T13:50:46;12.38;;;10.07;;
53052;SDS011;38934;52.690;6.184;2023-04-08T13:53:13;11.68;;;9.70;;
53052;SDS011;38934;52.690;6.184;2023-04-08T13:55:38;10.90;;;9.20;;
53052;SDS011;38934;52.690;6.184;2023-04-08T13:58:05;13.30;;;9.95;;
53052;SDS011;38934;52.690;6.184;2023-04-08T14:00:30;14.38;;;10.98;;
53052;SDS011;38934;52.690;6.184;2023-04-08T14:02:56;15.05;;;10.95;;
53052;SDS011;38934;52.690;6.184;2023-04-08T14:05:22;13.50;;;10.32;;
53052;SDS011;38934;52.690;6.184;2023-04-08T14:07:48;14.52;;;10.32;;
53052;SDS011;38934;52.690;6.184;2023-04-08T14:10:13;12.95;;;9.82;;
53052;SDS011;38934;52.690;6.184;2023-04-08T14:12:41;13.13;;;9.95;;
53052;SDS011;38934;52.690;6.184;2023-04-08T14:15:07;12.90;;;9.40;;
53052;SDS011;38934;52.690;6.184;2023-04-08T14:17:36;12.27;;;9.48;;
53052;SDS011;38934;52.690;6.184;2023-04-08T14:20:02;11.93;;;8.95;;
53052;SDS011;38934;52.690;6.184;2023-04-08T14:22:30;12.35;;;9.52;;
53052;SDS011;38934;52.690;6.184;2023-04-08T14:24:56;13.73;;;9.50;;
53052;SDS011;38934;52.690;6.184;2023-04-08T14:27:21;13.70;;;10.00;;
53052;SDS011;38934;52.690;6.184;2023-04-08T14:29:47;12.43;;;9.73;;
53052;SDS011;38934;52.690;6.184;2023-04-08T14:32:13;13.48;;;10.32;;
53052;SDS011;38934;52.690;6.184;2023-04-08T14:34:38;11.35;;;9.35;;
53052;SDS011;38934;52.690;6.184;2023-04-08T14:37:04;12.85;;;9.32;;
53052;SDS011;38934;52.690;6.184;2023-04-08T14:39:29;11.85;;;9.05;;